Time;durP1;ratioP1;P1;durP2;ratioP2;P2;SDS_P1;SDS_P2;PMS_P1;PMS_P2;Temp;Humidity;BMP_temperature;BMP_pressure;BME280_temperature;BME280_humidity;BME280_pressure;Samples;Min_cycle;Max_cycle;Signal;HPM_P1;HPM_P2
2022/11/26 00:02:23;;;;;;;28.73;16.88;;;;;;;;;;6188645;23;20056;-76
2022/11/26 00:04:50;;;;;;;26.63;17.55;;;;;;;;;;6189179;23;20000;-78
2022/11/26 00:07:20;;;;;;;30.65;18.50;;;;;;;;;;6215379;23;20353;-78
2022/11/26 00:09:46;;;;;;;26.67;17.77;;;;;;;;;;6189371;23;20027;-78
2022/11/26 00:12:15;;;;;;;30.55;18.05;;;;;;;;;;6214575;23;20076;-76
2022/11/26 00:14:42;;;;;;;32.10;19.10;;;;;;;;;;6187747;23;20000;-76
2022/11/26 00:17:11;;;;;;;30.48;18.73;;;;;;;;;;6213451;23;20004;-77
2022/11/26 00:19:37;;;;;;;27.77;16.90;;;;;;;;;;6187776;23;20031;-79
2022/11/26 00:22:03;;;;;;;30.92;17.17;;;;;;;;;;6190499;23;20008;-78
2022/11/26 00:24:30;;;;;;;30.95;18.85;;;;;;;;;;6218508;23;20011;-79
2022/11/26 00:26:59;;;;;;;34.40;18.23;;;;;;;;;;6218784;23;20079;-78
2022/11/26 00:29:25;;;;;;;31.80;17.77;;;;;;;;;;6192839;23;20011;-79
2022/11/26 00:31:51;;;;;;;35.65;17.73;;;;;;;;;;6219050;23;20067;-78
2022/11/26 00:34:20;;;;;;;30.73;17.52;;;;;;;;;;6191043;23;20001;-76
2022/11/26 00:36:47;;;;;;;28.33;16.10;;;;;;;;;;6216683;23;20001;-79
2022/11/26 00:39:18;;;;;;;26.27;15.82;;;;;;;;;;6216959;23;20062;-79
2022/11/26 00:41:47;;;;;;;30.20;15.20;;;;;;;;;;6189157;23;20012;-78
2022/11/26 00:44:23;;;;;;;27.95;15.52;;;;;;;;;;6189169;23;20004;-78
2022/11/26 00:46:53;;;;;;;28.02;15.63;;;;;;;;;;6188960;23;20028;-77
2022/11/26 00:49:19;;;;;;;27.48;15.43;;;;;;;;;;6188701;23;20012;-74
2022/11/26 00:51:46;;;;;;;23.35;14.25;;;;;;;;;;6189542;23;20008;-78
2022/11/26 00:54:14;;;;;;;25.75;15.02;;;;;;;;;;6189862;23;20054;-78
2022/11/26 00:56:43;;;;;;;31.42;15.88;;;;;;;;;;6215680;23;20004;-75
2022/11/26 00:59:13;;;;;;;27.33;15.00;;;;;;;;;;6190590;23;20005;-80
2022/11/26 01:01:39;;;;;;;26.30;14.40;;;;;;;;;;6190427;23;20012;-79
2022/11/26 01:04:08;;;;;;;28.13;14.63;;;;;;;;;;6189490;23;20059;-78
2022/11/26 01:06:37;;;;;;;24.88;15.90;;;;;;;;;;6189632;23;20004;-78
2022/11/26 01:09:06;;;;;;;31.15;16.33;;;;;;;;;;6215121;23;20008;-78
2022/11/26 01:11:33;;;;;;;22.10;14.65;;;;;;;;;;6189658;23;20280;-79
2022/11/26 01:13:59;;;;;;;27.95;15.40;;;;;;;;;;6189298;23;20155;-76
2022/11/26 01:16:27;;;;;;;30.48;15.15;;;;;;;;;;6216085;23;20001;-76
2022/11/26 01:18:54;;;;;;;26.27;14.57;;;;;;;;;;6189214;23;20000;-76
2022/11/26 01:21:21;;;;;;;27.10;15.52;;;;;;;;;;6216046;23;20004;-78
2022/11/26 01:23:47;;;;;;;27.23;15.23;;;;;;;;;;6215781;23;20058;-76
2022/11/26 01:26:15;;;;;;;27.38;15.07;;;;;;;;;;6215706;23;20008;-78
2022/11/26 01:28:41;;;;;;;26.20;14.98;;;;;;;;;;6214634;23;20004;-78
2022/11/26 01:31:12;;;;;;;24.35;13.70;;;;;;;;;;6215088;23;20000;-79
2022/11/26 01:33:38;;;;;;;22.27;13.80;;;;;;;;;;6188410;23;19997;-76
2022/11/26 01:36:08;;;;;;;26.60;14.23;;;;;;;;;;6188580;23;20076;-79
2022/11/26 01:38:34;;;;;;;25.80;13.95;;;;;;;;;;6187858;23;20066;-75
2022/11/26 01:41:33;;;;;;;29.33;14.02;;;;;;;;;;6187814;23;20341;-78
2022/11/26 01:43:59;;;;;;;32.88;13.90;;;;;;;;;;6164731;23;20508;-78
2022/11/26 01:46:25;;;;;;;32.65;15.15;;;;;;;;;;6214569;23;20008;-78
2022/11/26 01:48:51;;;;;;;28.17;14.25;;;;;;;;;;6214302;23;20001;-76
2022/11/26 01:51:19;;;;;;;29.42;13.98;;;;;;;;;;6214468;23;20000;-78
2022/11/26 01:53:47;;;;;;;30.15;15.82;;;;;;;;;;6214529;23;20027;-77
2022/11/26 01:56:19;;;;;;;24.88;15.02;;;;;;;;;;6214425;23;20028;-75
2022/11/26 01:58:47;;;;;;;28.83;15.40;;;;;;;;;;6214228;23;20388;-78
2022/11/26 02:01:13;;;;;;;26.92;14.10;;;;;;;;;;6214611;23;20008;-78
2022/11/26 02:03:45;;;;;;;23.85;13.13;;;;;;;;;;6214772;23;20004;-79
2022/11/26 02:06:13;;;;;;;30.02;14.65;;;;;;;;;;6187881;23;20469;-78
2022/11/26 02:08:39;;;;;;;22.15;13.35;;;;;;;;;;6214051;23;20358;-78
2022/11/26 02:11:16;;;;;;;24.20;13.65;;;;;;;;;;6214559;23;20001;-79
2022/11/26 02:13:43;;;;;;;28.80;13.55;;;;;;;;;;6214390;23;20003;-79
2022/11/26 02:16:17;;;;;;;24.52;11.82;;;;;;;;;;6214565;23;20054;-78
2022/11/26 02:18:45;;;;;;;25.90;12.70;;;;;;;;;;6214118;23;20036;-74
2022/11/26 02:21:14;;;;;;;27.90;12.98;;;;;;;;;;6187677;23;20083;-77
2022/11/26 02:23:55;;;;;;;19.60;11.80;;;;;;;;;;6214314;23;20004;-76
2022/11/26 02:26:27;;;;;;;26.50;12.60;;;;;;;;;;6188143;23;20107;-78
2022/11/26 02:28:53;;;;;;;28.52;13.10;;;;;;;;;;6214309;23;20007;-76
2022/11/26 02:31:22;;;;;;;22.58;13.32;;;;;;;;;;6215156;23;20004;-79
2022/11/26 02:33:51;;;;;;;20.63;12.35;;;;;;;;;;6215378;23;20000;-78
2022/11/26 02:36:23;;;;;;;29.17;13.88;;;;;;;;;;6189119;23;20027;-78
2022/11/26 02:38:49;;;;;;;29.33;13.13;;;;;;;;;;6215629;23;20035;-75
2022/11/26 02:41:16;;;;;;;24.30;13.15;;;;;;;;;;6216464;23;20452;-78
2022/11/26 02:43:42;;;;;;;18.83;12.07;;;;;;;;;;6214981;23;20008;-76
2022/11/26 02:46:14;;;;;;;26.33;12.85;;;;;;;;;;6215161;23;20012;-75
2022/11/26 02:48:46;;;;;;;23.33;12.90;;;;;;;;;;6214206;23;20005;-75
2022/11/26 02:51:17;;;;;;;27.40;14.13;;;;;;;;;;6188029;23;20016;-76
2022/11/26 02:53:48;;;;;;;20.88;13.00;;;;;;;;;;6187897;23;20083;-78
2022/11/26 02:56:19;;;;;;;22.58;13.77;;;;;;;;;;6213467;23;20001;-78
2022/11/26 02:58:46;;;;;;;23.80;13.57;;;;;;;;;;6187802;23;20447;-78
2022/11/26 03:01:15;;;;;;;24.00;13.60;;;;;;;;;;6214689;23;20019;-76
2022/11/26 03:03:47;;;;;;;22.92;12.55;;;;;;;;;;6214647;23;20011;-78
2022/11/26 03:06:14;;;;;;;24.23;13.52;;;;;;;;;;6214717;23;20004;-78
2022/11/26 03:08:40;;;;;;;28.00;13.52;;;;;;;;;;6214252;23;20433;-78
2022/11/26 03:11:06;;;;;;;22.60;14.32;;;;;;;;;;6214618;23;20318;-78
2022/11/26 03:13:32;;;;;;;24.42;13.55;;;;;;;;;;6214396;23;20333;-77
2022/11/26 03:15:58;;;;;;;22.65;14.68;;;;;;;;;;6214365;23;20000;-78
2022/11/26 03:18:24;;;;;;;25.92;15.52;;;;;;;;;;6214423;23;20432;-78
2022/11/26 03:20:50;;;;;;;21.95;14.57;;;;;;;;;;6214579;23;20028;-78
2022/11/26 03:23:16;;;;;;;29.25;17.25;;;;;;;;;;6187652;23;20087;-79
2022/11/26 03:25:42;;;;;;;30.15;15.57;;;;;;;;;;6214565;23;20345;-79
2022/11/26 03:28:11;;;;;;;30.80;16.25;;;;;;;;;;6214404;23;20009;-79
2022/11/26 03:30:37;;;;;;;28.15;16.75;;;;;;;;;;6188541;23;20059;-78
2022/11/26 03:33:03;;;;;;;29.95;16.23;;;;;;;;;;6215052;23;20015;-78
2022/11/26 03:35:29;;;;;;;28.42;17.48;;;;;;;;;;6194198;23;20373;-80
2022/11/26 03:37:55;;;;;;;31.15;16.90;;;;;;;;;;6225849;23;20024;-79
2022/11/26 03:40:27;;;;;;;27.55;16.52;;;;;;;;;;6216125;23;20039;-78
2022/11/26 03:42:53;;;;;;;27.27;15.48;;;;;;;;;;6187840;23;20011;-75
2022/11/26 03:45:19;;;;;;;28.83;17.15;;;;;;;;;;6214338;23;20008;-78
2022/11/26 03:47:46;;;;;;;33.90;19.00;;;;;;;;;;6214052;23;20043;-78
2022/11/26 03:50:12;;;;;;;38.05;18.85;;;;;;;;;;6213845;23;20072;-77
2022/11/26 03:52:38;;;;;;;29.83;17.90;;;;;;;;;;6213981;23;19996;-75
2022/11/26 03:55:04;;;;;;;31.45;17.42;;;;;;;;;;6214613;23;20019;-78
2022/11/26 03:57:30;;;;;;;32.80;18.42;;;;;;;;;;6215963;23;20008;-77
2022/11/26 03:59:56;;;;;;;34.83;18.30;;;;;;;;;;6189125;23;20001;-78
2022/11/26 04:02:22;;;;;;;41.17;19.08;;;;;;;;;;6215771;23;20004;-76
2022/11/26 04:04:48;;;;;;;25.52;17.23;;;;;;;;;;6215940;23;20024;-77
2022/11/26 04:07:14;;;;;;;37.97;20.35;;;;;;;;;;6216048;23;20001;-77
2022/11/26 04:09:40;;;;;;;35.45;18.77;;;;;;;;;;6189467;23;20080;-76
2022/11/26 04:12:06;;;;;;;34.22;19.65;;;;;;;;;;6215801;23;20437;-77
2022/11/26 04:14:32;;;;;;;34.47;20.20;;;;;;;;;;6215978;23;20384;-78
2022/11/26 04:16:58;;;;;;;35.90;18.85;;;;;;;;;;6215674;23;20005;-80
2022/11/26 04:19:24;;;;;;;36.85;20.17;;;;;;;;;;6212382;23;20005;-77
2022/11/26 04:21:50;;;;;;;31.23;19.65;;;;;;;;;;6215749;23;20504;-77
2022/11/26 04:24:16;;;;;;;35.50;19.52;;;;;;;;;;6215038;23;20008;-78
2022/11/26 04:26:42;;;;;;;36.70;19.67;;;;;;;;;;6215069;23;20011;-78
2022/11/26 04:29:08;;;;;;;33.65;19.13;;;;;;;;;;6214724;23;20004;-78
2022/11/26 04:31:34;;;;;;;34.53;18.92;;;;;;;;;;6214736;23;20031;-75
2022/11/26 04:34:00;;;;;;;35.28;20.50;;;;;;;;;;6214857;23;20071;-78
2022/11/26 04:36:26;;;;;;;34.72;20.17;;;;;;;;;;6188488;23;20039;-80
2022/11/26 04:38:57;;;;;;;39.55;19.63;;;;;;;;;;6188880;23;20341;-78
2022/11/26 04:41:23;;;;;;;;;;;;;;;;;;6189155;23;20012;-77
2022/11/26 04:43:49;;;;;;;38.47;18.55;;;;;;;;;;6213411;23;19904;-77
2022/11/26 04:46:15;;;;;;;36.55;20.45;;;;;;;;;;6215444;23;20055;-77
2022/11/26 04:48:41;;;;;;;49.75;19.60;;;;;;;;;;6187529;23;20004;-78
2022/11/26 04:51:10;;;;;;;34.95;19.85;;;;;;;;;;6188641;23;20089;-79
2022/11/26 04:53:36;;;;;;;39.67;19.15;;;;;;;;;;6189574;23;20387;-78
2022/11/26 04:56:02;;;;;;;38.10;19.48;;;;;;;;;;6190207;23;20004;-79
2022/11/26 04:58:28;;;;;;;37.72;20.80;;;;;;;;;;6237547;23;20028;-76
2022/11/26 05:00:55;;;;;;;32.17;18.80;;;;;;;;;;6212421;23;19999;-79
2022/11/26 05:03:21;;;;;;;32.78;20.13;;;;;;;;;;6210861;23;19993;-81
2022/11/26 05:05:47;;;;;;;34.72;19.45;;;;;;;;;;6222932;23;20008;-77
2022/11/26 05:08:13;;;;;;;30.27;19.27;;;;;;;;;;6224039;23;20024;-79
2022/11/26 05:10:51;;;;;;;37.40;19.33;;;;;;;;;;6218286;23;20004;-79
2022/11/26 05:13:17;;;;;;;36.42;20.20;;;;;;;;;;6217168;23;20062;-79
2022/11/26 05:15:47;;;;;;;37.88;19.75;;;;;;;;;;6215444;23;20008;-77
2022/11/26 05:18:13;;;;;;;30.35;18.77;;;;;;;;;;6189123;23;20020;-79
2022/11/26 05:20:39;;;;;;;38.55;20.00;;;;;;;;;;6215860;23;20013;-78
2022/11/26 05:23:05;;;;;;;34.92;19.63;;;;;;;;;;6217239;23;20024;-76
2022/11/26 05:25:31;;;;;;;40.95;20.90;;;;;;;;;;6190751;23;20004;-79
2022/11/26 05:28:04;;;;;;;40.50;20.20;;;;;;;;;;6189266;23;20096;-78
2022/11/26 05:30:30;;;;;;;41.40;19.92;;;;;;;;;;6190214;23;20024;-80
2022/11/26 05:32:56;;;;;;;37.08;20.35;;;;;;;;;;6190343;23;20000;-76
2022/11/26 05:35:22;;;;;;;45.33;23.83;;;;;;;;;;6190470;23;20099;-79
2022/11/26 05:37:48;;;;;;;36.20;20.98;;;;;;;;;;6188403;23;20460;-75
2022/11/26 05:40:15;;;;;;;45.67;23.40;;;;;;;;;;6215094;23;20005;-77
2022/11/26 05:42:41;;;;;;;44.20;22.75;;;;;;;;;;6188453;23;20072;-74
2022/11/26 05:45:08;;;;;;;46.30;22.02;;;;;;;;;;6188619;23;20027;-78
2022/11/26 05:47:34;;;;;;;34.60;20.92;;;;;;;;;;6188408;23;20008;-74
2022/11/26 05:50:00;;;;;;;35.63;20.08;;;;;;;;;;6187982;23;20004;-77
2022/11/26 05:52:26;;;;;;;37.75;22.30;;;;;;;;;;6215089;23;20004;-75
2022/11/26 05:54:52;;;;;;;38.92;20.92;;;;;;;;;;6215356;23;20005;-78
2022/11/26 05:57:18;;;;;;;36.00;20.25;;;;;;;;;;6188647;23;20008;-77
2022/11/26 05:59:45;;;;;;;34.85;20.13;;;;;;;;;;6189720;23;20004;-76
2022/11/26 06:02:12;;;;;;;34.97;20.30;;;;;;;;;;6217765;23;20024;-76
2022/11/26 06:04:38;;;;;;;38.47;22.38;;;;;;;;;;6204180;23;20028;-75
2022/11/26 06:07:04;;;;;;;41.33;21.83;;;;;;;;;;6230135;23;20000;-76
2022/11/26 06:09:34;;;;;;;37.83;20.92;;;;;;;;;;6202277;23;20424;-77
2022/11/26 06:12:01;;;;;;;40.17;21.88;;;;;;;;;;6203937;23;20023;-78
2022/11/26 06:14:27;;;;;;;35.95;20.58;;;;;;;;;;6222267;23;20425;-77
2022/11/26 06:16:53;;;;;;;43.17;21.80;;;;;;;;;;6214933;23;20019;-77
2022/11/26 06:19:19;;;;;;;45.80;22.20;;;;;;;;;;6213981;23;20441;-76
2022/11/26 06:21:48;;;;;;;37.88;22.08;;;;;;;;;;6215119;23;19996;-78
2022/11/26 06:24:14;;;;;;;52.28;24.13;;;;;;;;;;6187895;23;20015;-75
2022/11/26 06:26:40;;;;;;;36.70;21.65;;;;;;;;;;6215209;23;20075;-78
2022/11/26 06:29:08;;;;;;;48.00;22.83;;;;;;;;;;6215405;23;20027;-76
2022/11/26 06:31:34;;;;;;;50.60;24.20;;;;;;;;;;6217060;23;20016;-78
2022/11/26 06:34:00;;;;;;;44.90;23.20;;;;;;;;;;6215141;23;20004;-77
2022/11/26 06:36:26;;;;;;;46.38;24.60;;;;;;;;;;6214688;23;20479;-78
2022/11/26 06:41:55;;;;;;;43.22;23.55;;;;;;;;;;6153722;23;20358;-76
2022/11/26 06:44:32;;;;;;;44.47;22.67;;;;;;;;;;6150728;23;20012;-75
2022/11/26 06:47:28;;;;;;;39.13;21.75;;;;;;;;;;6154346;23;20040;-76
2022/11/26 06:50:01;;;;;;;41.33;21.70;;;;;;;;;;6140310;23;20009;-77
2022/11/26 06:52:44;;;;;;;37.65;20.30;;;;;;;;;;6157098;23;20377;-78
2022/11/26 07:02:21;;;;;;;;;;;;;;;;;;;;;
2022/11/26 07:05:03;;;;;;;39.85;19.90;;;;;;;;;;6173584;23;20080;-78
2022/11/26 07:07:58;;;;;;;33.38;18.88;;;;;;;;;;6155946;23;20028;-77
2022/11/26 07:14:25;;;;;;;;;;;;;;;;;;;;;
2022/11/26 07:17:33;;;;;;;;;;;;;;;;;;;;;
2022/11/26 07:20:29;;;;;;;37.53;18.25;;;;;;;;;;6243899;23;20071;-76
2022/11/26 07:23:07;;;;;;;32.20;17.42;;;;;;;;;;6215231;23;20005;-77
2022/11/26 07:25:56;;;;;;;;;;;;;;;;;;;;;
2022/11/26 07:31:35;;;;;;;42.15;17.80;;;;;;;;;;6228597;23;20008;-75
2022/11/26 07:34:07;;;;;;;30.48;15.48;;;;;;;;;;6245856;23;20004;-74
2022/11/26 07:36:45;;;;;;;34.60;16.27;;;;;;;;;;6217805;23;20024;-75
2022/11/26 07:39:25;;;;;;;28.10;15.55;;;;;;;;;;6245896;23;20007;-76
2022/11/26 07:42:21;;;;;;;37.90;17.00;;;;;;;;;;6218891;23;20065;-75
2022/11/26 07:44:49;;;;;;;33.15;14.65;;;;;;;;;;6217536;23;20428;-74
2022/11/26 07:47:26;;;;;;;41.40;16.70;;;;;;;;;;6245776;23;20004;-75
2022/11/26 07:50:08;;;;;;;;;;;;;;;;;;;;;
2022/11/26 07:52:50;;;;;;;27.92;15.27;;;;;;;;;;6239124;23;20384;-76
2022/11/26 07:55:21;;;;;;;31.88;13.80;;;;;;;;;;6219005;23;20062;-76
2022/11/26 07:58:08;;;;;;;24.13;14.52;;;;;;;;;;6218359;23;20000;-75
2022/11/26 08:00:36;;;;;;;31.25;13.25;;;;;;;;;;6244976;23;20004;-74
2022/11/26 08:12:27;;;;;;;35.60;13.50;;;;;;;;;;6247369;23;20054;-75
2022/11/26 08:15:10;;;;;;;35.03;13.63;;;;;;;;;;6219847;23;20050;-76
2022/11/26 08:17:50;;;;;;;30.50;13.18;;;;;;;;;;6219024;23;20008;-75
2022/11/26 08:20:25;;;;;;;38.05;12.48;;;;;;;;;;6205646;23;20021;-75
2022/11/26 08:23:01;;;;;;;28.20;11.85;;;;;;;;;;6208705;23;20030;-75
2022/11/26 08:25:30;;;;;;;23.30;10.50;;;;;;;;;;6208348;23;20169;-76
2022/11/26 08:31:27;;;;;;;21.48;9.23;;;;;;;;;;6184407;23;20079;-76
2022/11/26 08:34:16;;;;;;;20.48;9.15;;;;;;;;;;6179548;23;20032;-75
2022/11/26 08:36:56;;;;;;;25.17;9.88;;;;;;;;;;6186720;23;19997;-76
2022/11/26 08:39:26;;;;;;;25.40;9.27;;;;;;;;;;6183901;23;20005;-76
2022/11/26 08:42:04;;;;;;;22.15;8.13;;;;;;;;;;6182782;23;20012;-76
2022/11/26 08:44:33;;;;;;;20.77;8.40;;;;;;;;;;6183338;23;20016;-75
2022/11/26 08:47:19;;;;;;;25.15;10.15;;;;;;;;;;6180610;23;20005;-76
2022/11/26 08:50:00;;;;;;;20.27;8.95;;;;;;;;;;6180757;23;20016;-75
2022/11/26 08:52:34;;;;;;;21.27;9.20;;;;;;;;;;6181150;23;20055;-74
2022/11/26 08:55:23;;;;;;;24.23;9.27;;;;;;;;;;6182805;23;20401;-76
2022/11/26 08:57:55;;;;;;;22.35;8.35;;;;;;;;;;6160520;23;20051;-77
2022/11/26 09:00:55;;;;;;;24.77;8.70;;;;;;;;;;6184066;23;20406;-76
2022/11/26 09:03:31;;;;;;;24.60;8.77;;;;;;;;;;6183436;23;20001;-76
2022/11/26 09:06:03;;;;;;;21.33;8.57;;;;;;;;;;6181779;23;20052;-74
2022/11/26 09:11:45;;;;;;;22.90;8.95;;;;;;;;;;6184417;23;20011;-75
2022/11/26 09:14:32;;;;;;;21.80;8.10;;;;;;;;;;6183624;23;19997;-75
2022/11/26 09:17:24;;;;;;;23.00;8.60;;;;;;;;;;6183484;23;20010;-75
2022/11/26 09:20:03;;;;;;;;;;;;;;;;;;;;;
2022/11/26 09:22:39;;;;;;;;;;;;;;;;;;;;;
2022/11/26 09:25:42;;;;;;;24.40;9.18;;;;;;;;;;6185826;23;20096;-75
2022/11/26 09:28:23;;;;;;;20.00;7.53;;;;;;;;;;6155012;23;20006;-76
2022/11/26 09:31:03;;;;;;;22.17;7.70;;;;;;;;;;6158409;23;20376;-75
2022/11/26 09:34:01;;;;;;;26.98;7.70;;;;;;;;;;6157839;23;20005;-75
2022/11/26 09:36:35;;;;;;;24.63;7.78;;;;;;;;;;6157763;23;20341;-75
2022/11/26 09:39:11;;;;;;;21.13;7.03;;;;;;;;;;6157815;23;20040;-76
2022/11/26 09:41:45;;;;;;;22.58;7.47;;;;;;;;;;6158205;23;20005;-74
2022/11/26 09:47:23;;;;;;;21.23;6.90;;;;;;;;;;6184049;23;20005;-74
2022/11/26 09:50:11;;;;;;;14.88;6.93;;;;;;;;;;6184832;23;20198;-76
2022/11/26 09:52:57;;;;;;;14.77;5.55;;;;;;;;;;6158403;23;20001;-76
2022/11/26 09:55:52;;;;;;;17.17;7.25;;;;;;;;;;6134374;23;20005;-77
2022/11/26 09:58:37;;;;;;;12.38;6.15;;;;;;;;;;6158335;23;20012;-76
2022/11/26 10:01:06;;;;;;;16.33;7.13;;;;;;;;;;6158620;23;20009;-76
2022/11/26 10:03:41;;;;;;;17.05;6.28;;;;;;;;;;6158262;23;20009;-75
2022/11/26 10:06:31;;;;;;;27.13;6.30;;;;;;;;;;6158002;23;20001;-76
2022/11/26 10:09:17;;;;;;;18.00;6.68;;;;;;;;;;6156868;23;20012;-74
2022/11/26 10:11:52;;;;;;;16.58;5.88;;;;;;;;;;6157433;23;20001;-75
2022/11/26 10:14:27;;;;;;;20.88;6.22;;;;;;;;;;6156842;23;20001;-75
2022/11/26 10:17:11;;;;;;;18.95;6.07;;;;;;;;;;6156727;23;20001;-76
2022/11/26 10:19:56;;;;;;;15.18;5.88;;;;;;;;;;6182868;23;20459;-75
2022/11/26 10:22:29;;;;;;;21.58;5.80;;;;;;;;;;6182836;23;20032;-75
2022/11/26 10:24:56;;;;;;;17.38;6.53;;;;;;;;;;6156415;23;20012;-75
2022/11/26 10:27:25;;;;;;;22.65;5.97;;;;;;;;;;6182549;23;20009;-74
2022/11/26 10:29:54;;;;;;;15.07;5.43;;;;;;;;;;6181819;23;20001;-76
2022/11/26 10:32:25;;;;;;;20.13;5.78;;;;;;;;;;6157703;23;20043;-77
2022/11/26 10:34:53;;;;;;;15.30;5.68;;;;;;;;;;6155803;23;20063;-76
2022/11/26 10:37:21;;;;;;;18.05;6.10;;;;;;;;;;6182405;23;20063;-76
2022/11/26 10:39:47;;;;;;;15.48;6.13;;;;;;;;;;6156559;23;20009;-75
2022/11/26 10:42:18;;;;;;;20.13;5.80;;;;;;;;;;6156838;23;20005;-75
2022/11/26 10:44:44;;;;;;;17.67;4.88;;;;;;;;;;6158632;23;20013;-75
2022/11/26 10:47:36;;;;;;;18.30;4.80;;;;;;;;;;6160284;23;20012;-76
2022/11/26 10:50:05;;;;;;;13.15;4.40;;;;;;;;;;6158061;23;20349;-76
2022/11/26 10:52:37;;;;;;;20.25;5.10;;;;;;;;;;6158079;23;20108;-75
2022/11/26 10:55:26;;;;;;;19.27;5.38;;;;;;;;;;6158110;23;20001;-74
2022/11/26 10:57:55;;;;;;;17.52;4.97;;;;;;;;;;6175340;23;20008;-74
2022/11/26 11:00:27;;;;;;;19.30;5.70;;;;;;;;;;6183761;23;19997;-75
2022/11/26 11:02:58;;;;;;;17.83;5.88;;;;;;;;;;6184396;23;20024;-75
2022/11/26 11:05:27;;;;;;;18.15;4.60;;;;;;;;;;6184041;23;20033;-77
2022/11/26 11:07:53;;;;;;;17.60;5.20;;;;;;;;;;6183770;23;19997;-75
2022/11/26 11:10:23;;;;;;;14.57;4.45;;;;;;;;;;6156180;23;20009;-75
2022/11/26 11:12:49;;;;;;;19.77;4.88;;;;;;;;;;6157883;23;20033;-75
2022/11/26 11:15:23;;;;;;;18.63;8.05;;;;;;;;;;6183839;23;20001;-72
2022/11/26 11:18:07;;;;;;;15.82;4.30;;;;;;;;;;6183444;23;20072;-75
2022/11/26 11:20:35;;;;;;;13.98;4.15;;;;;;;;;;6156909;23;20067;-75
2022/11/26 11:23:03;;;;;;;27.17;8.23;;;;;;;;;;6184170;23;20001;-74
2022/11/26 11:25:31;;;;;;;15.75;4.75;;;;;;;;;;6157321;23;20477;-74
2022/11/26 11:28:05;;;;;;;19.25;5.60;;;;;;;;;;6156093;23;20005;-74
2022/11/26 11:30:33;;;;;;;16.45;5.28;;;;;;;;;;6156408;23;20032;-76
2022/11/26 11:33:29;;;;;;;18.38;5.15;;;;;;;;;;6157414;23;20088;-74
2022/11/26 11:35:59;;;;;;;17.98;4.35;;;;;;;;;;6150491;23;20089;-76
2022/11/26 11:38:28;;;;;;;17.70;5.05;;;;;;;;;;6157146;23;20005;-75
2022/11/26 11:40:54;;;;;;;20.75;4.60;;;;;;;;;;6156544;23;20071;-76
2022/11/26 11:43:22;;;;;;;19.23;5.10;;;;;;;;;;6157181;23;20088;-76
2022/11/26 11:46:06;;;;;;;13.38;4.57;;;;;;;;;;6182825;23;20399;-75
2022/11/26 11:48:38;;;;;;;20.10;5.50;;;;;;;;;;6181031;23;20060;-77
2022/11/26 11:51:13;;;;;;;19.55;7.25;;;;;;;;;;6181452;23;20004;-75
2022/11/26 11:53:49;;;;;;;26.85;10.40;;;;;;;;;;6155340;23;20040;-75
2022/11/26 11:56:31;;;;;;;15.57;4.40;;;;;;;;;;6181881;23;20143;-75
2022/11/26 11:58:57;;;;;;;17.70;4.75;;;;;;;;;;6154256;23;20319;-76
2022/11/26 12:01:30;;;;;;;15.30;4.68;;;;;;;;;;6155264;23;20500;-75
2022/11/26 12:03:59;;;;;;;17.20;5.13;;;;;;;;;;6183200;23;20001;-75
2022/11/26 12:06:27;;;;;;;18.13;5.32;;;;;;;;;;6157207;23;20036;-78
2022/11/26 12:09:12;;;;;;;16.00;4.95;;;;;;;;;;6183418;23;20057;-76
2022/11/26 12:11:49;;;;;;;12.30;4.45;;;;;;;;;;6183789;23;20004;-75
2022/11/26 12:14:25;;;;;;;12.80;5.45;;;;;;;;;;6157465;23;20500;-75
2022/11/26 12:16:59;;;;;;;19.77;4.93;;;;;;;;;;6158293;23;20083;-77
2022/11/26 12:19:50;;;;;;;16.67;4.30;;;;;;;;;;6158395;23;20441;-76
2022/11/26 12:22:21;;;;;;;19.08;4.82;;;;;;;;;;6129228;23;20071;-75
2022/11/26 12:24:58;;;;;;;16.75;4.72;;;;;;;;;;6129508;23;20010;-77
2022/11/26 12:27:38;;;;;;;14.80;5.05;;;;;;;;;;6129584;23;20092;-76
2022/11/26 12:30:20;;;;;;;15.45;4.45;;;;;;;;;;6128559;23;20009;-76
2022/11/26 12:32:46;;;;;;;14.80;4.63;;;;;;;;;;6129522;23;20002;-76
2022/11/26 12:35:17;;;;;;;14.50;4.32;;;;;;;;;;6155285;23;20056;-75
2022/11/26 12:37:43;;;;;;;14.13;4.70;;;;;;;;;;6129128;23;20372;-76
2022/11/26 12:46:41;;;;;;;;;;;;;;;;;;;;;
2022/11/26 12:49:44;;;;;;;;;;;;;;;;;;;;;
2022/11/26 12:58:34;;;;;;;12.05;4.32;;;;;;;;;;6211982;23;20032;-76
2022/11/26 13:01:32;;;;;;;16.15;6.43;;;;;;;;;;6217752;23;20023;-76
2022/11/26 13:07:56;;;;;;;16.85;4.80;;;;;;;;;;6212131;23;20066;-76
2022/11/26 13:14:00;;;;;;;;;;;;;;;;;;;;;
2022/11/26 13:16:33;;;;;;;17.42;4.82;;;;;;;;;;6186300;23;20135;-74
2022/11/26 13:19:14;;;;;;;15.80;5.93;;;;;;;;;;6212411;23;20000;-76
2022/11/26 13:21:59;;;;;;;17.15;6.07;;;;;;;;;;6214674;23;20027;-75
2022/11/26 13:24:28;;;;;;;16.05;5.30;;;;;;;;;;6213035;23;20005;-76
2022/11/26 13:27:18;;;;;;;15.60;5.60;;;;;;;;;;6214236;23;20001;-76
2022/11/26 13:30:21;;;;;;;14.90;5.05;;;;;;;;;;6211758;23;20054;-76
2022/11/26 13:33:23;;;;;;;16.67;4.90;;;;;;;;;;6212912;23;20008;-74
2022/11/26 13:36:33;;;;;;;15.52;5.38;;;;;;;;;;6212378;23;20008;-74
2022/11/26 13:39:41;;;;;;;14.45;5.25;;;;;;;;;;6210476;23;20005;-76
2022/11/26 13:42:25;;;;;;;16.88;5.47;;;;;;;;;;6212370;23;20479;-74
2022/11/26 13:45:32;;;;;;;17.92;5.05;;;;;;;;;;6212956;23;20440;-78
2022/11/26 13:48:24;;;;;;;15.30;5.38;;;;;;;;;;6213457;23;20008;-77
2022/11/26 13:51:20;;;;;;;17.90;5.15;;;;;;;;;;6183876;23;20028;-77
2022/11/26 13:53:57;;;;;;;16.25;4.82;;;;;;;;;;6212340;23;20000;-77
2022/11/26 13:56:36;;;;;;;20.38;7.07;;;;;;;;;;6214276;23;20000;-77
2022/11/26 14:02:51;;;;;;;15.65;4.55;;;;;;;;;;6181321;23;20032;-76
2022/11/26 14:05:17;;;;;;;14.05;5.10;;;;;;;;;;6154577;23;20017;-78
2022/11/26 14:07:44;;;;;;;14.50;4.80;;;;;;;;;;6153234;23;19998;-74
2022/11/26 14:10:29;;;;;;;13.68;4.22;;;;;;;;;;6154790;23;20009;-77
2022/11/26 14:13:01;;;;;;;12.40;4.47;;;;;;;;;;6154833;23;20005;-76
2022/11/26 14:15:42;;;;;;;15.23;4.72;;;;;;;;;;6180062;23;20005;-78
2022/11/26 14:18:10;;;;;;;17.67;4.45;;;;;;;;;;6184189;23;20005;-78
2022/11/26 14:20:55;;;;;;;11.32;4.00;;;;;;;;;;6156614;23;20080;-80
2022/11/26 14:23:39;;;;;;;14.25;4.85;;;;;;;;;;6183493;23;20001;-77
2022/11/26 14:26:06;;;;;;;11.15;3.72;;;;;;;;;;6183312;23;20024;-76
2022/11/26 14:28:32;;;;;;;12.25;4.50;;;;;;;;;;6183706;23;20005;-78
2022/11/26 14:31:29;;;;;;;14.93;4.43;;;;;;;;;;6184093;23;20001;-79
2022/11/26 14:33:57;;;;;;;20.75;4.95;;;;;;;;;;6172310;23;19997;-77
2022/11/26 14:36:23;;;;;;;22.17;5.13;;;;;;;;;;6184573;23;20055;-77
2022/11/26 14:39:05;;;;;;;14.82;4.40;;;;;;;;;;6184085;23;20004;-77
2022/11/26 14:41:35;;;;;;;11.82;4.78;;;;;;;;;;6184310;23;20051;-78
2022/11/26 14:44:19;;;;;;;15.43;4.38;;;;;;;;;;6184201;23;20457;-78
2022/11/26 14:46:48;;;;;;;10.38;4.47;;;;;;;;;;6184342;23;20005;-78
2022/11/26 14:49:13;;;;;;;12.98;5.20;;;;;;;;;;6184221;23;20001;-77
2022/11/26 14:51:42;;;;;;;19.60;5.07;;;;;;;;;;6184152;23;20011;-77
2022/11/26 14:54:14;;;;;;;18.58;6.07;;;;;;;;;;6183850;23;20001;-79
2022/11/26 14:56:41;;;;;;;;;;;;;;;;;;6185042;23;20024;-77
2022/11/26 14:59:14;;;;;;;17.02;5.53;;;;;;;;;;6183882;23;19900;-76
2022/11/26 15:01:43;;;;;;;21.40;7.22;;;;;;;;;;6184618;23;20001;-77
2022/11/26 15:04:25;;;;;;;19.45;6.32;;;;;;;;;;6174879;23;20033;-78
2022/11/26 15:06:51;;;;;;;14.93;5.75;;;;;;;;;;6128762;23;20429;-76
2022/11/26 15:09:24;;;;;;;19.45;6.07;;;;;;;;;;6128011;23;20468;-77
2022/11/26 15:11:56;;;;;;;23.23;6.35;;;;;;;;;;6154744;23;20068;-77
2022/11/26 15:14:25;;;;;;;15.32;6.43;;;;;;;;;;6154913;23;20005;-77
2022/11/26 15:16:55;;;;;;;19.60;6.05;;;;;;;;;;6153764;23;20065;-77
2022/11/26 15:19:21;;;;;;;16.42;5.90;;;;;;;;;;6153974;23;20012;-76
2022/11/26 15:21:48;;;;;;;29.15;6.90;;;;;;;;;;6154536;23;19997;-79
2022/11/26 15:24:14;;;;;;;20.15;6.38;;;;;;;;;;6154074;23;20042;-77
2022/11/26 15:26:40;;;;;;;16.75;5.85;;;;;;;;;;6153739;23;20460;-77
2022/11/26 15:29:24;;;;;;;20.08;7.05;;;;;;;;;;6154426;23;20005;-77
2022/11/26 15:31:50;;;;;;;18.85;6.07;;;;;;;;;;6127639;23;20054;-76
2022/11/26 15:34:16;;;;;;;21.80;6.25;;;;;;;;;;6153466;23;20005;-76
2022/11/26 15:36:42;;;;;;;25.17;7.35;;;;;;;;;;6154758;23;20001;-76
2022/11/26 15:39:23;;;;;;;21.58;7.22;;;;;;;;;;6176148;23;20557;-81
2022/11/26 15:41:49;;;;;;;19.88;6.80;;;;;;;;;;6177222;23;20001;-78
2022/11/26 15:44:23;;;;;;;26.63;7.75;;;;;;;;;;6178583;23;20001;-79
2022/11/26 15:46:50;;;;;;;17.35;7.00;;;;;;;;;;6168035;23;20539;-76
2022/11/26 15:49:21;;;;;;;24.88;7.47;;;;;;;;;;6129293;23;20353;-77
2022/11/26 15:51:53;;;;;;;21.88;7.07;;;;;;;;;;6155661;23;20069;-76
2022/11/26 15:54:23;;;;;;;16.52;7.28;;;;;;;;;;6156457;23;20008;-77
2022/11/26 15:56:54;;;;;;;20.73;8.10;;;;;;;;;;6156760;23;20331;-77
2022/11/26 15:59:21;;;;;;;15.23;7.18;;;;;;;;;;6156073;23;20001;-75
2022/11/26 16:01:48;;;;;;;19.48;7.28;;;;;;;;;;6156066;23;20083;-77
2022/11/26 16:04:34;;;;;;;23.48;8.60;;;;;;;;;;6155615;23;20016;-77
2022/11/26 16:07:13;;;;;;;17.23;8.38;;;;;;;;;;6129350;23;20009;-75